sensor_id;sensor_type;location;lat;lon;timestamp;P1;durP1;ratioP1;P2;durP2;ratioP2
3054;SDS011;1537;52.018;8.542;2023-08-08T00:01:14;9.93;;;5.37;;
3054;SDS011;1537;52.018;8.542;2023-08-08T00:04:40;8.43;;;5.23;;
3054;SDS011;1537;52.018;8.542;2023-08-08T00:08:06;8.90;;;4.73;;
3054;SDS011;1537;52.018;8.542;2023-08-08T00:11:30;11.30;;;5.73;;
3054;SDS011;1537;52.018;8.542;2023-08-08T00:14:54;8.57;;;5.00;;
3054;SDS011;1537;52.018;8.542;2023-08-08T00:18:18;11.20;;;6.40;;
3054;SDS011;1537;52.018;8.542;2023-08-08T00:21:42;9.33;;;5.70;;
3054;SDS011;1537;52.018;8.542;2023-08-08T00:25:08;11.43;;;6.50;;
3054;SDS011;1537;52.018;8.542;2023-08-08T00:28:32;9.83;;;5.63;;
3054;SDS011;1537;52.018;8.542;2023-08-08T00:31:55;11.20;;;5.77;;
3054;SDS011;1537;52.018;8.542;2023-08-08T00:35:20;9.73;;;5.23;;
3054;SDS011;1537;52.018;8.542;2023-08-08T00:38:44;11.03;;;6.70;;
3054;SDS011;1537;52.018;8.542;2023-08-08T00:42:12;9.50;;;5.83;;
3054;SDS011;1537;52.018;8.542;2023-08-08T00:45:39;9.07;;;6.13;;
3054;SDS011;1537;52.018;8.542;2023-08-08T00:49:06;12.03;;;6.10;;
3054;SDS011;1537;52.018;8.542;2023-08-08T00:52:29;18.00;;;5.80;;
3054;SDS011;1537;52.018;8.542;2023-08-08T00:55:54;9.70;;;6.33;;
3054;SDS011;1537;52.018;8.542;2023-08-08T00:59:20;8.67;;;6.40;;
3054;SDS011;1537;52.018;8.542;2023-08-08T01:02:44;10.33;;;5.60;;
3054;SDS011;1537;52.018;8.542;2023-08-08T01:06:10;10.83;;;5.37;;
3054;SDS011;1537;52.018;8.542;2023-08-08T01:09:41;10.40;;;5.57;;
3054;SDS011;1537;52.018;8.542;2023-08-08T01:13:14;9.30;;;4.53;;
3054;SDS011;1537;52.018;8.542;2023-08-08T01:16:45;8.17;;;4.60;;
3054;SDS011;1537;52.018;8.542;2023-08-08T01:20:09;11.10;;;5.57;;
3054;SDS011;1537;52.018;8.542;2023-08-08T01:23:41;9.67;;;5.03;;
3054;SDS011;1537;52.018;8.542;2023-08-08T01:27:10;8.97;;;5.67;;
3054;SDS011;1537;52.018;8.542;2023-08-08T01:30:35;8.87;;;4.73;;
3054;SDS011;1537;52.018;8.542;2023-08-08T01:33:58;10.37;;;5.00;;
3054;SDS011;1537;52.018;8.542;2023-08-08T01:37:24;9.90;;;4.80;;
3054;SDS011;1537;52.018;8.542;2023-08-08T01:40:53;8.53;;;4.80;;
3054;SDS011;1537;52.018;8.542;2023-08-08T01:44:21;8.70;;;4.57;;
3054;SDS011;1537;52.018;8.542;2023-08-08T01:47:49;8.73;;;4.90;;
3054;SDS011;1537;52.018;8.542;2023-08-08T01:51:13;10.30;;;4.70;;
3054;SDS011;1537;52.018;8.542;2023-08-08T01:54:37;9.87;;;5.00;;
3054;SDS011;1537;52.018;8.542;2023-08-08T01:58:01;9.00;;;4.63;;
3054;SDS011;1537;52.018;8.542;2023-08-08T02:01:27;7.10;;;4.47;;
3054;SDS011;1537;52.018;8.542;2023-08-08T02:04:51;7.97;;;4.33;;
3054;SDS011;1537;52.018;8.542;2023-08-08T02:08:15;10.87;;;4.43;;
3054;SDS011;1537;52.018;8.542;2023-08-08T02:11:41;10.43;;;4.80;;
3054;SDS011;1537;52.018;8.542;2023-08-08T02:15:07;6.93;;;3.40;;
3054;SDS011;1537;52.018;8.542;2023-08-08T02:18:32;11.07;;;4.33;;
3054;SDS011;1537;52.018;8.542;2023-08-08T02:21:56;7.40;;;3.33;;
3054;SDS011;1537;52.018;8.542;2023-08-08T02:25:20;6.57;;;4.00;;
3054;SDS011;1537;52.018;8.542;2023-08-08T02:28:44;6.90;;;3.37;;
3054;SDS011;1537;52.018;8.542;2023-08-08T02:32:08;7.47;;;3.37;;
3054;SDS011;1537;52.018;8.542;2023-08-08T02:35:35;7.03;;;3.57;;
3054;SDS011;1537;52.018;8.542;2023-08-08T02:38:59;9.03;;;3.33;;
3054;SDS011;1537;52.018;8.542;2023-08-08T02:42:23;5.80;;;2.87;;
3054;SDS011;1537;52.018;8.542;2023-08-08T02:45:47;5.63;;;2.97;;
3054;SDS011;1537;52.018;8.542;2023-08-08T02:49:12;7.73;;;3.30;;
3054;SDS011;1537;52.018;8.542;2023-08-08T02:52:38;6.00;;;2.87;;
3054;SDS011;1537;52.018;8.542;2023-08-08T02:56:03;6.50;;;2.50;;
3054;SDS011;1537;52.018;8.542;2023-08-08T02:59:31;5.07;;;2.63;;
3054;SDS011;1537;52.018;8.542;2023-08-08T03:02:59;5.23;;;2.70;;
3054;SDS011;1537;52.018;8.542;2023-08-08T03:06:26;7.63;;;3.13;;
3054;SDS011;1537;52.018;8.542;2023-08-08T03:09:55;6.33;;;2.87;;
3054;SDS011;1537;52.018;8.542;2023-08-08T03:13:19;6.43;;;3.27;;
3054;SDS011;1537;52.018;8.542;2023-08-08T03:16:45;6.47;;;2.73;;
3054;SDS011;1537;52.018;8.542;2023-08-08T03:20:11;4.83;;;2.60;;
3054;SDS011;1537;52.018;8.542;2023-08-08T03:23:35;5.70;;;3.07;;
3054;SDS011;1537;52.018;8.542;2023-08-08T03:27:00;11.10;;;3.47;;
3054;SDS011;1537;52.018;8.542;2023-08-08T03:30:24;7.70;;;3.20;;
3054;SDS011;1537;52.018;8.542;2023-08-08T03:33:49;7.07;;;2.90;;
3054;SDS011;1537;52.018;8.542;2023-08-08T03:37:13;6.87;;;3.00;;
3054;SDS011;1537;52.018;8.542;2023-08-08T03:40:38;6.20;;;2.83;;
3054;SDS011;1537;52.018;8.542;2023-08-08T03:44:04;6.57;;;3.60;;
3054;SDS011;1537;52.018;8.542;2023-08-08T03:47:31;5.93;;;2.60;;
3054;SDS011;1537;52.018;8.542;2023-08-08T03:50:56;9.70;;;4.33;;
3054;SDS011;1537;52.018;8.542;2023-08-08T03:54:20;9.00;;;3.97;;
3054;SDS011;1537;52.018;8.542;2023-08-08T03:57:44;7.67;;;4.33;;
3054;SDS011;1537;52.018;8.542;2023-08-08T04:01:09;7.00;;;3.87;;
3054;SDS011;1537;52.018;8.542;2023-08-08T04:04:34;9.63;;;6.80;;
3054;SDS011;1537;52.018;8.542;2023-08-08T04:08:00;8.20;;;5.50;;
3054;SDS011;1537;52.018;8.542;2023-08-08T04:11:24;9.43;;;6.10;;
3054;SDS011;1537;52.018;8.542;2023-08-08T04:14:48;9.67;;;5.60;;
3054;SDS011;1537;52.018;8.542;2023-08-08T04:18:13;10.40;;;6.33;;
3054;SDS011;1537;52.018;8.542;2023-08-08T04:21:37;9.17;;;6.20;;
3054;SDS011;1537;52.018;8.542;2023-08-08T04:25:01;7.90;;;6.03;;
3054;SDS011;1537;52.018;8.542;2023-08-08T04:28:25;10.00;;;6.80;;
3054;SDS011;1537;52.018;8.542;2023-08-08T04:31:52;8.83;;;6.50;;
3054;SDS011;1537;52.018;8.542;2023-08-08T04:35:17;7.80;;;5.77;;
3054;SDS011;1537;52.018;8.542;2023-08-08T04:38:41;13.00;;;6.57;;
3054;SDS011;1537;52.018;8.542;2023-08-08T04:42:05;12.07;;;6.70;;
3054;SDS011;1537;52.018;8.542;2023-08-08T04:45:29;11.70;;;7.00;;
3054;SDS011;1537;52.018;8.542;2023-08-08T04:48:53;8.80;;;6.20;;
3054;SDS011;1537;52.018;8.542;2023-08-08T04:52:21;11.27;;;7.07;;
3054;SDS011;1537;52.018;8.542;2023-08-08T04:55:45;11.10;;;7.77;;
3054;SDS011;1537;52.018;8.542;2023-08-08T04:59:10;13.40;;;6.70;;
3054;SDS011;1537;52.018;8.542;2023-08-08T05:02:34;11.80;;;6.73;;
3054;SDS011;1537;52.018;8.542;2023-08-08T05:05:59;15.50;;;7.33;;
3054;SDS011;1537;52.018;8.542;2023-08-08T05:09:25;16.67;;;8.00;;
3054;SDS011;1537;52.018;8.542;2023-08-08T05:12:49;14.77;;;6.87;;
3054;SDS011;1537;52.018;8.542;2023-08-08T05:16:13;9.80;;;6.40;;
3054;SDS011;1537;52.018;8.542;2023-08-08T05:19:37;10.70;;;6.40;;
3054;SDS011;1537;52.018;8.542;2023-08-08T05:23:01;13.57;;;7.57;;
3054;SDS011;1537;52.018;8.542;2023-08-08T05:26:27;8.87;;;6.90;;
3054;SDS011;1537;52.018;8.542;2023-08-08T05:29:51;13.97;;;6.97;;
3054;SDS011;1537;52.018;8.542;2023-08-08T05:33:15;14.33;;;6.50;;
3054;SDS011;1537;52.018;8.542;2023-08-08T05:36:39;11.40;;;6.83;;
3054;SDS011;1537;52.018;8.542;2023-08-08T05:40:03;12.67;;;6.40;;
3054;SDS011;1537;52.018;8.542;2023-08-08T05:43:30;11.60;;;6.40;;
3054;SDS011;1537;52.018;8.542;2023-08-08T05:46:55;12.77;;;6.47;;
3054;SDS011;1537;52.018;8.542;2023-08-08T05:50:19;10.83;;;6.23;;
3054;SDS011;1537;52.018;8.542;2023-08-08T05:53:43;13.87;;;6.60;;
3054;SDS011;1537;52.018;8.542;2023-08-08T05:57:07;12.33;;;5.50;;
3054;SDS011;1537;52.018;8.542;2023-08-08T06:00:32;11.70;;;5.83;;
3054;SDS011;1537;52.018;8.542;2023-08-08T06:03:57;11.67;;;6.33;;
3054;SDS011;1537;52.018;8.542;2023-08-08T06:07:24;9.37;;;5.93;;
3054;SDS011;1537;52.018;8.542;2023-08-08T06:10:48;8.47;;;5.40;;
3054;SDS011;1537;52.018;8.542;2023-08-08T06:14:12;10.37;;;5.10;;
3054;SDS011;1537;52.018;8.542;2023-08-08T06:17:37;11.27;;;7.37;;
3054;SDS011;1537;52.018;8.542;2023-08-08T06:21:02;7.70;;;5.00;;
3054;SDS011;1537;52.018;8.542;2023-08-08T06:24:26;7.93;;;5.20;;
3054;SDS011;1537;52.018;8.542;2023-08-08T06:27:50;10.37;;;5.33;;
3054;SDS011;1537;52.018;8.542;2023-08-08T06:31:14;8.77;;;5.27;;
3054;SDS011;1537;52.018;8.542;2023-08-08T06:34:39;8.93;;;5.20;;
3054;SDS011;1537;52.018;8.542;2023-08-08T06:38:04;10.17;;;6.87;;
3054;SDS011;1537;52.018;8.542;2023-08-08T06:41:28;17.63;;;7.20;;
3054;SDS011;1537;52.018;8.542;2023-08-08T06:44:52;9.13;;;6.03;;
3054;SDS011;1537;52.018;8.542;2023-08-08T06:48:16;10.23;;;7.03;;
3054;SDS011;1537;52.018;8.542;2023-08-08T06:51:41;11.80;;;7.90;;
3054;SDS011;1537;52.018;8.542;2023-08-08T06:55:05;16.20;;;7.87;;
3054;SDS011;1537;52.018;8.542;2023-08-08T06:58:30;12.50;;;7.93;;
3054;SDS011;1537;52.018;8.542;2023-08-08T07:01:56;15.83;;;8.53;;
3054;SDS011;1537;52.018;8.542;2023-08-08T07:05:20;13.87;;;8.20;;
3054;SDS011;1537;52.018;8.542;2023-08-08T07:08:49;12.20;;;8.83;;
3054;SDS011;1537;52.018;8.542;2023-08-08T07:12:14;16.90;;;10.00;;
3054;SDS011;1537;52.018;8.542;2023-08-08T07:15:38;13.10;;;10.80;;
3054;SDS011;1537;52.018;8.542;2023-08-08T07:19:02;14.73;;;11.60;;
3054;SDS011;1537;52.018;8.542;2023-08-08T07:22:26;13.77;;;11.10;;
3054;SDS011;1537;52.018;8.542;2023-08-08T07:25:53;15.70;;;11.53;;
3054;SDS011;1537;52.018;8.542;2023-08-08T07:29:17;16.83;;;13.30;;
3054;SDS011;1537;52.018;8.542;2023-08-08T07:32:44;16.87;;;12.17;;
3054;SDS011;1537;52.018;8.542;2023-08-08T07:36:08;17.47;;;10.80;;
3054;SDS011;1537;52.018;8.542;2023-08-08T07:39:38;18.10;;;12.40;;
3054;SDS011;1537;52.018;8.542;2023-08-08T07:43:05;20.03;;;13.17;;
3054;SDS011;1537;52.018;8.542;2023-08-08T07:46:30;16.33;;;12.77;;
3054;SDS011;1537;52.018;8.542;2023-08-08T07:49:54;20.53;;;13.80;;
3054;SDS011;1537;52.018;8.542;2023-08-08T07:53:19;18.40;;;14.33;;
3054;SDS011;1537;52.018;8.542;2023-08-08T07:56:42;16.60;;;13.37;;
3054;SDS011;1537;52.018;8.542;2023-08-08T08:00:08;17.30;;;14.40;;
3054;SDS011;1537;52.018;8.542;2023-08-08T08:03:34;16.17;;;13.73;;
3054;SDS011;1537;52.018;8.542;2023-08-08T08:06:59;18.07;;;14.70;;
3054;SDS011;1537;52.018;8.542;2023-08-08T08:10:22;15.63;;;13.10;;
3054;SDS011;1537;52.018;8.542;2023-08-08T08:13:46;17.30;;;13.33;;
3054;SDS011;1537;52.018;8.542;2023-08-08T08:17:11;22.13;;;15.07;;
3054;SDS011;1537;52.018;8.542;2023-08-08T08:20:35;17.13;;;14.03;;
3054;SDS011;1537;52.018;8.542;2023-08-08T08:23:58;21.97;;;15.40;;
3054;SDS011;1537;52.018;8.542;2023-08-08T08:27:22;25.40;;;16.50;;
3054;SDS011;1537;52.018;8.542;2023-08-08T08:30:46;17.60;;;15.67;;
3054;SDS011;1537;52.018;8.542;2023-08-08T08:34:11;17.50;;;15.33;;
3054;SDS011;1537;52.018;8.542;2023-08-08T08:37:35;16.77;;;13.90;;
3054;SDS011;1537;52.018;8.542;2023-08-08T08:40:58;17.10;;;12.00;;
3054;SDS011;1537;52.018;8.542;2023-08-08T08:44:23;13.90;;;12.40;;
3054;SDS011;1537;52.018;8.542;2023-08-08T08:47:47;15.90;;;11.07;;
3054;SDS011;1537;52.018;8.542;2023-08-08T08:51:15;13.43;;;11.60;;
3054;SDS011;1537;52.018;8.542;2023-08-08T08:54:39;15.07;;;11.60;;
3054;SDS011;1537;52.018;8.542;2023-08-08T08:58:03;16.23;;;11.73;;
3054;SDS011;1537;52.018;8.542;2023-08-08T09:01:27;15.57;;;11.40;;
3054;SDS011;1537;52.018;8.542;2023-08-08T09:04:51;17.80;;;10.03;;
3054;SDS011;1537;52.018;8.542;2023-08-08T09:08:17;20.27;;;11.90;;
3054;SDS011;1537;52.018;8.542;2023-08-08T09:11:42;15.03;;;11.30;;
3054;SDS011;1537;52.018;8.542;2023-08-08T09:15:08;16.00;;;11.63;;
3054;SDS011;1537;52.018;8.542;2023-08-08T09:18:32;13.97;;;10.53;;
3054;SDS011;1537;52.018;8.542;2023-08-08T09:21:55;15.50;;;8.67;;
3054;SDS011;1537;52.018;8.542;2023-08-08T09:25:21;12.57;;;7.73;;
3054;SDS011;1537;52.018;8.542;2023-08-08T09:28:45;11.60;;;8.33;;
3054;SDS011;1537;52.018;8.542;2023-08-08T09:32:08;16.33;;;9.00;;
3054;SDS011;1537;52.018;8.542;2023-08-08T09:35:33;12.27;;;8.17;;
3054;SDS011;1537;52.018;8.542;2023-08-08T09:38:57;13.93;;;6.63;;
3054;SDS011;1537;52.018;8.542;2023-08-08T09:42:22;9.00;;;5.67;;
3054;SDS011;1537;52.018;8.542;2023-08-08T09:45:47;10.10;;;4.63;;
3054;SDS011;1537;52.018;8.542;2023-08-08T09:49:11;9.33;;;5.50;;
3054;SDS011;1537;52.018;8.542;2023-08-08T09:52:35;10.27;;;4.20;;
3054;SDS011;1537;52.018;8.542;2023-08-08T09:56:01;10.13;;;5.87;;
3054;SDS011;1537;52.018;8.542;2023-08-08T09:59:27;11.23;;;4.90;;
3054;SDS011;1537;52.018;8.542;2023-08-08T10:02:52;7.50;;;3.90;;
3054;SDS011;1537;52.018;8.542;2023-08-08T10:06:15;10.77;;;3.43;;
3054;SDS011;1537;52.018;8.542;2023-08-08T10:09:39;6.63;;;3.77;;
3054;SDS011;1537;52.018;8.542;2023-08-08T10:13:03;13.70;;;4.33;;
3054;SDS011;1537;52.018;8.542;2023-08-08T10:16:31;8.07;;;3.83;;
3054;SDS011;1537;52.018;8.542;2023-08-08T10:19:55;7.53;;;3.70;;
3054;SDS011;1537;52.018;8.542;2023-08-08T10:23:19;8.70;;;3.60;;
3054;SDS011;1537;52.018;8.542;2023-08-08T10:26:52;9.10;;;3.30;;
3054;SDS011;1537;52.018;8.542;2023-08-08T10:30:18;10.33;;;2.80;;
3054;SDS011;1537;52.018;8.542;2023-08-08T10:33:43;9.50;;;3.50;;
3054;SDS011;1537;52.018;8.542;2023-08-08T10:37:09;10.20;;;3.83;;
3054;SDS011;1537;52.018;8.542;2023-08-08T10:40:34;7.77;;;3.50;;
3054;SDS011;1537;52.018;8.542;2023-08-08T10:43:59;7.73;;;3.17;;
3054;SDS011;1537;52.018;8.542;2023-08-08T10:47:22;7.77;;;3.20;;
3054;SDS011;1537;52.018;8.542;2023-08-08T10:50:48;6.67;;;3.03;;
3054;SDS011;1537;52.018;8.542;2023-08-08T10:54:12;8.77;;;2.40;;
3054;SDS011;1537;52.018;8.542;2023-08-08T10:57:38;7.03;;;2.60;;
3054;SDS011;1537;52.018;8.542;2023-08-08T11:01:02;8.60;;;2.40;;
3054;SDS011;1537;52.018;8.542;2023-08-08T11:04:30;5.10;;;2.43;;
3054;SDS011;1537;52.018;8.542;2023-08-08T11:07:56;5.80;;;3.07;;
3054;SDS011;1537;52.018;8.542;2023-08-08T11:11:21;6.00;;;2.53;;
3054;SDS011;1537;52.018;8.542;2023-08-08T11:14:44;5.57;;;2.77;;
3054;SDS011;1537;52.018;8.542;2023-08-08T11:18:08;11.03;;;3.10;;
3054;SDS011;1537;52.018;8.542;2023-08-08T11:21:35;10.63;;;2.90;;
3054;SDS011;1537;52.018;8.542;2023-08-08T11:25:01;7.90;;;3.10;;
3054;SDS011;1537;52.018;8.542;2023-08-08T11:28:26;6.43;;;3.20;;
3054;SDS011;1537;52.018;8.542;2023-08-08T11:31:50;6.70;;;3.40;;
3054;SDS011;1537;52.018;8.542;2023-08-08T11:35:15;6.90;;;3.83;;
3054;SDS011;1537;52.018;8.542;2023-08-08T11:38:40;8.33;;;2.90;;
3054;SDS011;1537;52.018;8.542;2023-08-08T11:42:06;10.70;;;3.17;;
3054;SDS011;1537;52.018;8.542;2023-08-08T11:45:31;6.30;;;3.40;;
3054;SDS011;1537;52.018;8.542;2023-08-08T11:48:55;6.30;;;2.90;;
3054;SDS011;1537;52.018;8.542;2023-08-08T11:52:25;6.13;;;2.43;;
3054;SDS011;1537;52.018;8.542;2023-08-08T11:55:50;7.80;;;2.60;;
3054;SDS011;1537;52.018;8.542;2023-08-08T11:59:15;8.40;;;2.57;;
3054;SDS011;1537;52.018;8.542;2023-08-08T12:02:39;8.20;;;2.60;;
3054;SDS011;1537;52.018;8.542;2023-08-08T12:06:10;6.63;;;2.60;;
3054;SDS011;1537;52.018;8.542;2023-08-08T12:09:36;6.93;;;2.67;;
3054;SDS011;1537;52.018;8.542;2023-08-08T12:13:00;6.17;;;2.30;;
3054;SDS011;1537;52.018;8.542;2023-08-08T12:16:27;7.30;;;2.27;;
3054;SDS011;1537;52.018;8.542;2023-08-08T12:19:54;5.07;;;2.60;;
3054;SDS011;1537;52.018;8.542;2023-08-08T12:23:21;7.07;;;2.70;;
3054;SDS011;1537;52.018;8.542;2023-08-08T12:26:45;6.57;;;2.43;;
3054;SDS011;1537;52.018;8.542;2023-08-08T12:30:09;5.73;;;2.23;;
3054;SDS011;1537;52.018;8.542;2023-08-08T12:33:35;5.33;;;2.30;;
3054;SDS011;1537;52.018;8.542;2023-08-08T12:36:59;6.13;;;2.20;;
3054;SDS011;1537;52.018;8.542;2023-08-08T12:40:24;7.90;;;2.40;;
3054;SDS011;1537;52.018;8.542;2023-08-08T12:43:48;5.03;;;2.43;;
3054;SDS011;1537;52.018;8.542;2023-08-08T12:47:14;6.97;;;2.60;;
3054;SDS011;1537;52.018;8.542;2023-08-08T13:00:06;5.30;;;2.70;;
3054;SDS011;1537;52.018;8.542;2023-08-08T13:03:31;5.63;;;2.47;;
3054;SDS011;1537;52.018;8.542;2023-08-08T13:06:56;4.77;;;2.20;;
3054;SDS011;1537;52.018;8.542;2023-08-08T13:10:19;7.90;;;3.07;;
3054;SDS011;1537;52.018;8.542;2023-08-08T13:13:43;6.80;;;2.50;;
3054;SDS011;1537;52.018;8.542;2023-08-08T13:17:08;8.07;;;2.90;;
3054;SDS011;1537;52.018;8.542;2023-08-08T13:20:32;4.70;;;2.50;;
3054;SDS011;1537;52.018;8.542;2023-08-08T13:23:56;6.17;;;3.00;;
3054;SDS011;1537;52.018;8.542;2023-08-08T13:27:20;4.93;;;2.40;;
3054;SDS011;1537;52.018;8.542;2023-08-08T13:30:44;7.57;;;2.43;;
3054;SDS011;1537;52.018;8.542;2023-08-08T13:34:09;5.40;;;2.47;;
3054;SDS011;1537;52.018;8.542;2023-08-08T13:37:33;5.33;;;2.80;;
3054;SDS011;1537;52.018;8.542;2023-08-08T13:40:57;6.70;;;2.50;;
3054;SDS011;1537;52.018;8.542;2023-08-08T13:44:22;5.27;;;2.03;;
3054;SDS011;1537;52.018;8.542;2023-08-08T13:47:45;4.83;;;2.07;;
3054;SDS011;1537;52.018;8.542;2023-08-08T13:51:11;4.80;;;2.30;;
3054;SDS011;1537;52.018;8.542;2023-08-08T13:54:35;5.90;;;2.20;;
3054;SDS011;1537;52.018;8.542;2023-08-08T13:57:58;9.90;;;3.70;;
3054;SDS011;1537;52.018;8.542;2023-08-08T14:01:22;6.23;;;2.60;;
3054;SDS011;1537;52.018;8.542;2023-08-08T14:04:46;6.50;;;2.33;;
3054;SDS011;1537;52.018;8.542;2023-08-08T14:08:11;6.93;;;2.87;;
3054;SDS011;1537;52.018;8.542;2023-08-08T14:11:35;5.83;;;2.70;;
3054;SDS011;1537;52.018;8.542;2023-08-08T14:14:59;5.90;;;2.57;;
3054;SDS011;1537;52.018;8.542;2023-08-08T14:18:23;4.90;;;2.57;;
3054;SDS011;1537;52.018;8.542;2023-08-08T14:21:46;6.80;;;2.33;;
3054;SDS011;1537;52.018;8.542;2023-08-08T14:25:11;7.40;;;2.27;;
3054;SDS011;1537;52.018;8.542;2023-08-08T14:28:35;6.77;;;3.03;;
3054;SDS011;1537;52.018;8.542;2023-08-08T14:31:59;4.87;;;2.70;;
3054;SDS011;1537;52.018;8.542;2023-08-08T14:35:23;5.30;;;2.13;;
3054;SDS011;1537;52.018;8.542;2023-08-08T14:38:46;8.13;;;2.50;;
3054;SDS011;1537;52.018;8.542;2023-08-08T14:42:11;6.80;;;2.50;;
3054;SDS011;1537;52.018;8.542;2023-08-08T14:45:35;5.07;;;2.33;;
3054;SDS011;1537;52.018;8.542;2023-08-08T14:49:00;7.03;;;2.57;;
3054;SDS011;1537;52.018;8.542;2023-08-08T14:52:26;4.47;;;2.40;;
3054;SDS011;1537;52.018;8.542;2023-08-08T14:55:49;4.70;;;2.67;;
3054;SDS011;1537;52.018;8.542;2023-08-08T14:59:14;4.40;;;2.50;;
3054;SDS011;1537;52.018;8.542;2023-08-08T15:02:38;4.43;;;2.23;;
3054;SDS011;1537;52.018;8.542;2023-08-08T15:06:02;5.27;;;2.40;;
3054;SDS011;1537;52.018;8.542;2023-08-08T15:09:26;5.87;;;2.53;;
3054;SDS011;1537;52.018;8.542;2023-08-08T15:12:50;6.10;;;2.30;;
3054;SDS011;1537;52.018;8.542;2023-08-08T15:16:15;5.53;;;2.23;;
3054;SDS011;1537;52.018;8.542;2023-08-08T15:19:39;5.03;;;2.27;;
3054;SDS011;1537;52.018;8.542;2023-08-08T15:23:03;5.63;;;2.20;;
3054;SDS011;1537;52.018;8.542;2023-08-08T15:26:27;7.23;;;2.47;;
3054;SDS011;1537;52.018;8.542;2023-08-08T15:29:50;5.07;;;2.60;;
3054;SDS011;1537;52.018;8.542;2023-08-08T15:33:15;7.67;;;2.40;;
3054;SDS011;1537;52.018;8.542;2023-08-08T15:36:39;5.73;;;2.70;;
3054;SDS011;1537;52.018;8.542;2023-08-08T15:40:03;7.90;;;2.83;;
3054;SDS011;1537;52.018;8.542;2023-08-08T15:43:27;5.17;;;2.87;;
3054;SDS011;1537;52.018;8.542;2023-08-08T15:46:52;7.53;;;2.60;;
3054;SDS011;1537;52.018;8.542;2023-08-08T15:50:17;4.80;;;2.60;;
3054;SDS011;1537;52.018;8.542;2023-08-08T15:53:41;5.00;;;2.30;;
3054;SDS011;1537;52.018;8.542;2023-08-08T15:57:05;4.93;;;2.37;;
3054;SDS011;1537;52.018;8.542;2023-08-08T16:00:29;5.70;;;2.77;;
3054;SDS011;1537;52.018;8.542;2023-08-08T16:03:53;5.80;;;2.43;;
3054;SDS011;1537;52.018;8.542;2023-08-08T16:07:18;6.10;;;2.40;;
3054;SDS011;1537;52.018;8.542;2023-08-08T16:10:42;7.10;;;2.70;;
3054;SDS011;1537;52.018;8.542;2023-08-08T16:14:06;5.57;;;2.50;;
3054;SDS011;1537;52.018;8.542;2023-08-08T16:17:29;6.27;;;2.90;;
3054;SDS011;1537;52.018;8.542;2023-08-08T16:20:53;8.33;;;2.70;;
3054;SDS011;1537;52.018;8.542;2023-08-08T16:24:18;5.53;;;2.40;;
3054;SDS011;1537;52.018;8.542;2023-08-08T16:27:42;5.90;;;2.80;;
3054;SDS011;1537;52.018;8.542;2023-08-08T16:31:05;4.50;;;2.30;;
3054;SDS011;1537;52.018;8.542;2023-08-08T16:34:29;5.40;;;2.70;;
3054;SDS011;1537;52.018;8.542;2023-08-08T16:37:53;5.40;;;2.70;;
3054;SDS011;1537;52.018;8.542;2023-08-08T16:41:19;5.80;;;2.40;;
3054;SDS011;1537;52.018;8.542;2023-08-08T16:44:42;5.87;;;3.40;;
3054;SDS011;1537;52.018;8.542;2023-08-08T16:48:06;6.97;;;2.90;;
3054;SDS011;1537;52.018;8.542;2023-08-08T16:51:30;5.67;;;3.40;;
3054;SDS011;1537;52.018;8.542;2023-08-08T16:54:53;5.40;;;3.17;;
3054;SDS011;1537;52.018;8.542;2023-08-08T16:58:18;6.23;;;3.23;;
3054;SDS011;1537;52.018;8.542;2023-08-08T17:01:42;8.57;;;3.23;;
3054;SDS011;1537;52.018;8.542;2023-08-08T17:05:06;7.03;;;3.33;;
3054;SDS011;1537;52.018;8.542;2023-08-08T17:08:30;8.27;;;3.43;;
3054;SDS011;1537;52.018;8.542;2023-08-08T17:11:54;5.10;;;3.27;;
3054;SDS011;1537;52.018;8.542;2023-08-08T17:15:19;4.93;;;2.77;;
3054;SDS011;1537;52.018;8.542;2023-08-08T17:18:43;5.63;;;3.03;;
3054;SDS011;1537;52.018;8.542;2023-08-08T17:22:09;4.87;;;3.00;;
3054;SDS011;1537;52.018;8.542;2023-08-08T17:25:33;5.87;;;3.70;;
3054;SDS011;1537;52.018;8.542;2023-08-08T17:28:57;5.80;;;3.07;;
3054;SDS011;1537;52.018;8.542;2023-08-08T17:32:22;5.93;;;3.20;;
3054;SDS011;1537;52.018;8.542;2023-08-08T17:35:46;5.80;;;2.90;;
3054;SDS011;1537;52.018;8.542;2023-08-08T17:39:10;5.60;;;3.33;;
3054;SDS011;1537;52.018;8.542;2023-08-08T17:42:33;5.00;;;2.92;;
3054;SDS011;1537;52.018;8.542;2023-08-08T17:45:57;6.93;;;2.93;;
3054;SDS011;1537;52.018;8.542;2023-08-08T17:49:22;6.53;;;3.00;;
3054;SDS011;1537;52.018;8.542;2023-08-08T17:52:46;5.83;;;2.87;;
3054;SDS011;1537;52.018;8.542;2023-08-08T17:56:10;5.57;;;2.83;;
3054;SDS011;1537;52.018;8.542;2023-08-08T17:59:33;7.37;;;2.77;;
3054;SDS011;1537;52.018;8.542;2023-08-08T18:02:57;5.40;;;2.90;;
3054;SDS011;1537;52.018;8.542;2023-08-08T18:06:22;6.30;;;3.03;;
3054;SDS011;1537;52.018;8.542;2023-08-08T18:09:46;6.30;;;3.13;;
3054;SDS011;1537;52.018;8.542;2023-08-08T18:13:12;6.53;;;3.87;;
3054;SDS011;1537;52.018;8.542;2023-08-08T18:16:36;8.37;;;3.53;;
3054;SDS011;1537;52.018;8.542;2023-08-08T18:20:00;13.50;;;3.17;;
3054;SDS011;1537;52.018;8.542;2023-08-08T18:23:25;7.47;;;3.30;;
3054;SDS011;1537;52.018;8.542;2023-08-08T18:26:48;6.33;;;3.30;;
3054;SDS011;1537;52.018;8.542;2023-08-08T18:30:12;5.77;;;3.00;;
3054;SDS011;1537;52.018;8.542;2023-08-08T18:33:37;6.10;;;3.30;;
3054;SDS011;1537;52.018;8.542;2023-08-08T18:37:01;6.17;;;3.43;;
3054;SDS011;1537;52.018;8.542;2023-08-08T18:40:26;6.00;;;3.30;;
3054;SDS011;1537;52.018;8.542;2023-08-08T18:43:49;7.00;;;3.47;;
3054;SDS011;1537;52.018;8.542;2023-08-08T18:47:13;5.73;;;3.10;;
3054;SDS011;1537;52.018;8.542;2023-08-08T18:50:36;9.10;;;3.60;;
3054;SDS011;1537;52.018;8.542;2023-08-08T18:54:00;6.37;;;3.00;;
3054;SDS011;1537;52.018;8.542;2023-08-08T18:57:27;7.40;;;3.83;;
3054;SDS011;1537;52.018;8.542;2023-08-08T19:00:51;4.87;;;2.70;;
3054;SDS011;1537;52.018;8.542;2023-08-08T19:04:15;8.33;;;3.30;;
3054;SDS011;1537;52.018;8.542;2023-08-08T19:07:38;7.50;;;3.40;;
3054;SDS011;1537;52.018;8.542;2023-08-08T19:11:02;5.07;;;2.80;;
3054;SDS011;1537;52.018;8.542;2023-08-08T19:14:27;5.10;;;3.20;;
3054;SDS011;1537;52.018;8.542;2023-08-08T19:17:51;5.10;;;2.97;;
3054;SDS011;1537;52.018;8.542;2023-08-08T19:21:17;9.03;;;3.30;;
3054;SDS011;1537;52.018;8.542;2023-08-08T19:24:41;5.50;;;3.13;;
3054;SDS011;1537;52.018;8.542;2023-08-08T19:28:05;4.70;;;2.70;;
3054;SDS011;1537;52.018;8.542;2023-08-08T19:31:30;4.90;;;2.70;;
3054;SDS011;1537;52.018;8.542;2023-08-08T19:34:54;4.80;;;2.70;;
3054;SDS011;1537;52.018;8.542;2023-08-08T19:38:18;7.60;;;2.90;;
3054;SDS011;1537;52.018;8.542;2023-08-08T19:41:42;6.13;;;2.83;;
3054;SDS011;1537;52.018;8.542;2023-08-08T19:45:05;5.27;;;3.10;;
3054;SDS011;1537;52.018;8.542;2023-08-08T19:48:31;5.80;;;2.80;;
3054;SDS011;1537;52.018;8.542;2023-08-08T19:51:54;5.90;;;2.83;;
3054;SDS011;1537;52.018;8.542;2023-08-08T19:55:18;6.60;;;2.90;;
3054;SDS011;1537;52.018;8.542;2023-08-08T19:58:42;6.13;;;3.40;;
3054;SDS011;1537;52.018;8.542;2023-08-08T20:02:06;8.50;;;3.90;;
3054;SDS011;1537;52.018;8.542;2023-08-08T20:05:31;8.20;;;3.80;;
3054;SDS011;1537;52.018;8.542;2023-08-08T20:08:54;8.90;;;4.30;;
3054;SDS011;1537;52.018;8.542;2023-08-08T20:12:18;8.30;;;3.00;;
3054;SDS011;1537;52.018;8.542;2023-08-08T20:15:42;5.00;;;3.07;;
3054;SDS011;1537;52.018;8.542;2023-08-08T20:19:05;10.03;;;3.40;;
3054;SDS011;1537;52.018;8.542;2023-08-08T20:22:30;5.10;;;2.87;;
3054;SDS011;1537;52.018;8.542;2023-08-08T20:25:54;6.53;;;3.40;;
3054;SDS011;1537;52.018;8.542;2023-08-08T20:29:18;5.60;;;3.30;;
3054;SDS011;1537;52.018;8.542;2023-08-08T20:32:41;5.63;;;3.10;;
3054;SDS011;1537;52.018;8.542;2023-08-08T20:36:05;5.07;;;2.87;;
3054;SDS011;1537;52.018;8.542;2023-08-08T20:44:44;7.10;;;2.93;;
3054;SDS011;1537;52.018;8.542;2023-08-08T20:48:08;5.47;;;2.60;;
3054;SDS011;1537;52.018;8.542;2023-08-08T20:51:32;5.77;;;3.03;;
3054;SDS011;1537;52.018;8.542;2023-08-08T20:54:56;5.60;;;2.87;;
3054;SDS011;1537;52.018;8.542;2023-08-08T20:58:19;5.70;;;2.90;;
3054;SDS011;1537;52.018;8.542;2023-08-08T21:01:44;6.60;;;3.23;;
3054;SDS011;1537;52.018;8.542;2023-08-08T21:05:08;6.87;;;3.20;;
3054;SDS011;1537;52.018;8.542;2023-08-08T21:08:32;7.77;;;3.27;;
3054;SDS011;1537;52.018;8.542;2023-08-08T21:11:57;6.93;;;3.17;;
3054;SDS011;1537;52.018;8.542;2023-08-08T21:15:21;6.53;;;3.00;;
3054;SDS011;1537;52.018;8.542;2023-08-08T21:18:46;11.80;;;3.40;;